sensor_id;sensor_type;location;lat;lon;timestamp;P1;durP1;ratioP1;P2;durP2;ratioP2
80625;SDS011;69982;51.758;5.784;2023-12-04T00:01:46;19.20;;;8.70;;
80625;SDS011;69982;51.758;5.784;2023-12-04T00:04:14;20.10;;;8.60;;
80625;SDS011;69982;51.758;5.784;2023-12-04T00:06:41;21.80;;;9.10;;
80625;SDS011;69982;51.758;5.784;2023-12-04T00:09:07;24.80;;;10.50;;
80625;SDS011;69982;51.758;5.784;2023-12-04T00:11:34;25.30;;;10.60;;
80625;SDS011;69982;51.758;5.784;2023-12-04T00:14:00;25.20;;;9.70;;
80625;SDS011;69982;51.758;5.784;2023-12-04T00:16:27;16.60;;;7.20;;
80625;SDS011;69982;51.758;5.784;2023-12-04T00:18:53;23.90;;;9.70;;
80625;SDS011;69982;51.758;5.784;2023-12-04T00:21:20;22.20;;;9.00;;
80625;SDS011;69982;51.758;5.784;2023-12-04T00:23:46;26.80;;;10.40;;
80625;SDS011;69982;51.758;5.784;2023-12-04T00:26:12;23.30;;;8.60;;
80625;SDS011;69982;51.758;5.784;2023-12-04T00:28:40;24.20;;;9.30;;
80625;SDS011;69982;51.758;5.784;2023-12-04T00:31:07;21.50;;;8.90;;
80625;SDS011;69982;51.758;5.784;2023-12-04T00:33:36;24.20;;;9.90;;
80625;SDS011;69982;51.758;5.784;2023-12-04T00:36:03;21.60;;;9.80;;
80625;SDS011;69982;51.758;5.784;2023-12-04T00:38:29;25.60;;;10.50;;
80625;SDS011;69982;51.758;5.784;2023-12-04T00:40:56;25.30;;;10.80;;
80625;SDS011;69982;51.758;5.784;2023-12-04T00:43:25;24.90;;;9.90;;
80625;SDS011;69982;51.758;5.784;2023-12-04T00:45:51;23.80;;;9.90;;
80625;SDS011;69982;51.758;5.784;2023-12-04T00:48:17;19.80;;;7.90;;
80625;SDS011;69982;51.758;5.784;2023-12-04T00:50:44;24.80;;;10.10;;
80625;SDS011;69982;51.758;5.784;2023-12-04T00:53:10;20.10;;;8.70;;
80625;SDS011;69982;51.758;5.784;2023-12-04T00:55:37;24.40;;;9.80;;
80625;SDS011;69982;51.758;5.784;2023-12-04T00:58:04;25.10;;;9.60;;
80625;SDS011;69982;51.758;5.784;2023-12-04T01:00:30;24.10;;;8.70;;
80625;SDS011;69982;51.758;5.784;2023-12-04T01:02:56;19.40;;;8.20;;
80625;SDS011;69982;51.758;5.784;2023-12-04T01:05:23;25.90;;;10.70;;
80625;SDS011;69982;51.758;5.784;2023-12-04T01:07:49;24.70;;;9.30;;
80625;SDS011;69982;51.758;5.784;2023-12-04T01:10:15;19.50;;;8.20;;
80625;SDS011;69982;51.758;5.784;2023-12-04T01:12:42;21.40;;;9.60;;
80625;SDS011;69982;51.758;5.784;2023-12-04T01:15:08;24.30;;;10.00;;
80625;SDS011;69982;51.758;5.784;2023-12-04T01:17:35;22.00;;;9.40;;
80625;SDS011;69982;51.758;5.784;2023-12-04T01:20:04;25.90;;;9.30;;
80625;SDS011;69982;51.758;5.784;2023-12-04T01:22:31;16.80;;;6.50;;
80625;SDS011;69982;51.758;5.784;2023-12-04T01:24:58;13.60;;;5.10;;
80625;SDS011;69982;51.758;5.784;2023-12-04T01:27:24;22.30;;;10.40;;
80625;SDS011;69982;51.758;5.784;2023-12-04T01:29:51;20.40;;;8.70;;
80625;SDS011;69982;51.758;5.784;2023-12-04T01:32:17;22.20;;;9.80;;
80625;SDS011;69982;51.758;5.784;2023-12-04T01:34:44;20.30;;;8.20;;
80625;SDS011;69982;51.758;5.784;2023-12-04T01:37:10;21.80;;;9.30;;
80625;SDS011;69982;51.758;5.784;2023-12-04T01:39:37;19.50;;;7.60;;
80625;SDS011;69982;51.758;5.784;2023-12-04T01:42:04;22.70;;;9.00;;
80625;SDS011;69982;51.758;5.784;2023-12-04T01:44:30;24.30;;;9.90;;
80625;SDS011;69982;51.758;5.784;2023-12-04T01:46:57;20.00;;;8.50;;
80625;SDS011;69982;51.758;5.784;2023-12-04T01:49:23;23.70;;;9.10;;
80625;SDS011;69982;51.758;5.784;2023-12-04T01:51:50;20.20;;;9.00;;
80625;SDS011;69982;51.758;5.784;2023-12-04T01:54:18;17.90;;;7.40;;
80625;SDS011;69982;51.758;5.784;2023-12-04T01:56:45;22.10;;;9.20;;
80625;SDS011;69982;51.758;5.784;2023-12-04T01:59:13;19.00;;;8.50;;
80625;SDS011;69982;51.758;5.784;2023-12-04T02:01:39;11.80;;;4.40;;
80625;SDS011;69982;51.758;5.784;2023-12-04T02:04:06;18.70;;;8.00;;
80625;SDS011;69982;51.758;5.784;2023-12-04T02:06:33;17.00;;;8.20;;
80625;SDS011;69982;51.758;5.784;2023-12-04T02:09:01;18.20;;;6.90;;
80625;SDS011;69982;51.758;5.784;2023-12-04T02:11:28;23.20;;;9.20;;
80625;SDS011;69982;51.758;5.784;2023-12-04T02:13:54;22.50;;;9.10;;
80625;SDS011;69982;51.758;5.784;2023-12-04T02:16:21;15.10;;;6.10;;
80625;SDS011;69982;51.758;5.784;2023-12-04T02:18:53;20.50;;;8.60;;
80625;SDS011;69982;51.758;5.784;2023-12-04T02:21:19;27.00;;;9.30;;
80625;SDS011;69982;51.758;5.784;2023-12-04T02:23:52;17.10;;;7.00;;
80625;SDS011;69982;51.758;5.784;2023-12-04T02:26:21;19.50;;;8.40;;
80625;SDS011;69982;51.758;5.784;2023-12-04T02:28:54;20.90;;;9.10;;
80625;SDS011;69982;51.758;5.784;2023-12-04T02:31:27;20.30;;;8.60;;
80625;SDS011;69982;51.758;5.784;2023-12-04T02:33:56;16.00;;;6.30;;
80625;SDS011;69982;51.758;5.784;2023-12-04T02:36:25;16.20;;;6.50;;
80625;SDS011;69982;51.758;5.784;2023-12-04T02:38:52;19.60;;;8.70;;
80625;SDS011;69982;51.758;5.784;2023-12-04T02:41:19;19.30;;;7.80;;
80625;SDS011;69982;51.758;5.784;2023-12-04T02:43:45;15.40;;;6.90;;
80625;SDS011;69982;51.758;5.784;2023-12-04T02:46:12;20.30;;;7.80;;
80625;SDS011;69982;51.758;5.784;2023-12-04T02:48:38;17.70;;;8.70;;
80625;SDS011;69982;51.758;5.784;2023-12-04T02:51:05;13.90;;;5.90;;
80625;SDS011;69982;51.758;5.784;2023-12-04T02:53:31;17.60;;;6.80;;
80625;SDS011;69982;51.758;5.784;2023-12-04T02:55:58;18.50;;;7.80;;
80625;SDS011;69982;51.758;5.784;2023-12-04T02:58:24;16.30;;;6.90;;
80625;SDS011;69982;51.758;5.784;2023-12-04T03:00:51;15.00;;;6.40;;
80625;SDS011;69982;51.758;5.784;2023-12-04T03:03:19;19.40;;;8.60;;
80625;SDS011;69982;51.758;5.784;2023-12-04T03:05:46;19.60;;;7.60;;
80625;SDS011;69982;51.758;5.784;2023-12-04T03:10:41;17.60;;;7.60;;
80625;SDS011;69982;51.758;5.784;2023-12-04T03:13:08;14.30;;;6.60;;
80625;SDS011;69982;51.758;5.784;2023-12-04T03:15:34;14.90;;;6.00;;
80625;SDS011;69982;51.758;5.784;2023-12-04T03:18:01;16.90;;;6.10;;
80625;SDS011;69982;51.758;5.784;2023-12-04T03:20:28;11.50;;;4.80;;
80625;SDS011;69982;51.758;5.784;2023-12-04T03:22:54;15.90;;;7.30;;
80625;SDS011;69982;51.758;5.784;2023-12-04T03:25:21;18.70;;;7.80;;
80625;SDS011;69982;51.758;5.784;2023-12-04T03:30:16;16.70;;;7.00;;
80625;SDS011;69982;51.758;5.784;2023-12-04T03:32:43;14.90;;;6.80;;
80625;SDS011;69982;51.758;5.784;2023-12-04T03:35:09;17.10;;;8.10;;
80625;SDS011;69982;51.758;5.784;2023-12-04T03:37:36;17.00;;;6.60;;
80625;SDS011;69982;51.758;5.784;2023-12-04T03:40:03;14.50;;;6.90;;
80625;SDS011;69982;51.758;5.784;2023-12-04T03:42:30;7.40;;;3.10;;
80625;SDS011;69982;51.758;5.784;2023-12-04T03:44:56;18.80;;;8.00;;
80625;SDS011;69982;51.758;5.784;2023-12-04T03:47:23;12.90;;;6.30;;
80625;SDS011;69982;51.758;5.784;2023-12-04T03:49:51;13.00;;;5.70;;
80625;SDS011;69982;51.758;5.784;2023-12-04T03:52:17;19.10;;;7.90;;
80625;SDS011;69982;51.758;5.784;2023-12-04T03:54:44;14.40;;;6.00;;
80625;SDS011;69982;51.758;5.784;2023-12-04T03:57:11;15.30;;;6.90;;
80625;SDS011;69982;51.758;5.784;2023-12-04T03:59:37;17.80;;;8.20;;
80625;SDS011;69982;51.758;5.784;2023-12-04T04:02:04;15.00;;;7.00;;
80625;SDS011;69982;51.758;5.784;2023-12-04T04:04:31;14.50;;;6.60;;
80625;SDS011;69982;51.758;5.784;2023-12-04T04:06:58;12.80;;;5.80;;
80625;SDS011;69982;51.758;5.784;2023-12-04T04:09:24;16.80;;;7.40;;
80625;SDS011;69982;51.758;5.784;2023-12-04T04:11:51;12.10;;;5.30;;
80625;SDS011;69982;51.758;5.784;2023-12-04T04:14:17;13.60;;;5.70;;
80625;SDS011;69982;51.758;5.784;2023-12-04T04:16:43;14.90;;;6.50;;
80625;SDS011;69982;51.758;5.784;2023-12-04T04:19:10;15.20;;;6.90;;
80625;SDS011;69982;51.758;5.784;2023-12-04T04:21:41;11.80;;;5.30;;
80625;SDS011;69982;51.758;5.784;2023-12-04T04:24:07;13.50;;;6.20;;
80625;SDS011;69982;51.758;5.784;2023-12-04T04:26:34;14.80;;;6.20;;
80625;SDS011;69982;51.758;5.784;2023-12-04T04:29:00;13.90;;;5.90;;
80625;SDS011;69982;51.758;5.784;2023-12-04T04:31:27;12.60;;;6.10;;
80625;SDS011;69982;51.758;5.784;2023-12-04T04:33:53;13.60;;;5.90;;
80625;SDS011;69982;51.758;5.784;2023-12-04T04:36:20;11.50;;;4.40;;
80625;SDS011;69982;51.758;5.784;2023-12-04T04:38:46;11.30;;;4.70;;
80625;SDS011;69982;51.758;5.784;2023-12-04T04:41:16;12.90;;;6.30;;
80625;SDS011;69982;51.758;5.784;2023-12-04T04:43:45;14.70;;;6.20;;
80625;SDS011;69982;51.758;5.784;2023-12-04T04:46:13;13.60;;;6.40;;
80625;SDS011;69982;51.758;5.784;2023-12-04T04:48:40;10.90;;;4.40;;
80625;SDS011;69982;51.758;5.784;2023-12-04T04:51:06;16.30;;;6.70;;
80625;SDS011;69982;51.758;5.784;2023-12-04T04:53:33;11.40;;;5.50;;
80625;SDS011;69982;51.758;5.784;2023-12-04T04:55:59;13.10;;;5.70;;
80625;SDS011;69982;51.758;5.784;2023-12-04T04:58:26;13.40;;;6.20;;
80625;SDS011;69982;51.758;5.784;2023-12-04T05:00:52;15.30;;;6.70;;
80625;SDS011;69982;51.758;5.784;2023-12-04T05:03:19;15.00;;;7.00;;
80625;SDS011;69982;51.758;5.784;2023-12-04T05:05:46;12.30;;;5.40;;
80625;SDS011;69982;51.758;5.784;2023-12-04T05:08:16;14.30;;;5.90;;
80625;SDS011;69982;51.758;5.784;2023-12-04T05:10:42;15.80;;;6.40;;
80625;SDS011;69982;51.758;5.784;2023-12-04T05:13:08;13.40;;;5.80;;
80625;SDS011;69982;51.758;5.784;2023-12-04T05:15:35;11.40;;;5.10;;
80625;SDS011;69982;51.758;5.784;2023-12-04T05:18:02;12.80;;;6.40;;
80625;SDS011;69982;51.758;5.784;2023-12-04T05:20:28;13.50;;;6.30;;
80625;SDS011;69982;51.758;5.784;2023-12-04T05:22:56;13.40;;;5.70;;
80625;SDS011;69982;51.758;5.784;2023-12-04T05:25:25;12.30;;;5.60;;
80625;SDS011;69982;51.758;5.784;2023-12-04T05:27:52;14.20;;;6.50;;
80625;SDS011;69982;51.758;5.784;2023-12-04T05:30:19;13.60;;;5.90;;
80625;SDS011;69982;51.758;5.784;2023-12-04T05:32:46;9.40;;;4.50;;
80625;SDS011;69982;51.758;5.784;2023-12-04T05:35:12;13.50;;;5.50;;
80625;SDS011;69982;51.758;5.784;2023-12-04T05:37:41;12.90;;;5.70;;
80625;SDS011;69982;51.758;5.784;2023-12-04T05:40:07;10.00;;;5.10;;
80625;SDS011;69982;51.758;5.784;2023-12-04T05:42:35;12.30;;;5.20;;
80625;SDS011;69982;51.758;5.784;2023-12-04T05:45:02;12.20;;;5.70;;
80625;SDS011;69982;51.758;5.784;2023-12-04T05:47:29;12.00;;;6.10;;
80625;SDS011;69982;51.758;5.784;2023-12-04T05:49:55;16.80;;;6.70;;
80625;SDS011;69982;51.758;5.784;2023-12-04T05:52:22;12.60;;;5.30;;
80625;SDS011;69982;51.758;5.784;2023-12-04T05:54:51;13.20;;;6.60;;
80625;SDS011;69982;51.758;5.784;2023-12-04T05:57:18;11.70;;;5.30;;
80625;SDS011;69982;51.758;5.784;2023-12-04T05:59:45;12.80;;;5.80;;
80625;SDS011;69982;51.758;5.784;2023-12-04T06:02:11;7.40;;;3.70;;
80625;SDS011;69982;51.758;5.784;2023-12-04T06:04:38;10.60;;;4.30;;
80625;SDS011;69982;51.758;5.784;2023-12-04T06:07:06;13.30;;;5.90;;
80625;SDS011;69982;51.758;5.784;2023-12-04T06:09:34;14.80;;;5.50;;
80625;SDS011;69982;51.758;5.784;2023-12-04T06:12:02;14.10;;;6.80;;
80625;SDS011;69982;51.758;5.784;2023-12-04T06:14:34;11.90;;;5.10;;
80625;SDS011;69982;51.758;5.784;2023-12-04T06:17:01;14.10;;;5.50;;
80625;SDS011;69982;51.758;5.784;2023-12-04T06:19:29;8.70;;;3.90;;
80625;SDS011;69982;51.758;5.784;2023-12-04T06:21:55;11.50;;;5.40;;
80625;SDS011;69982;51.758;5.784;2023-12-04T06:24:25;12.50;;;5.30;;
80625;SDS011;69982;51.758;5.784;2023-12-04T06:26:51;12.50;;;5.90;;
80625;SDS011;69982;51.758;5.784;2023-12-04T06:29:19;12.50;;;5.40;;
80625;SDS011;69982;51.758;5.784;2023-12-04T06:31:45;11.80;;;5.10;;
80625;SDS011;69982;51.758;5.784;2023-12-04T06:34:16;12.00;;;5.40;;
80625;SDS011;69982;51.758;5.784;2023-12-04T06:36:43;11.80;;;5.40;;
80625;SDS011;69982;51.758;5.784;2023-12-04T06:39:10;11.20;;;4.90;;
80625;SDS011;69982;51.758;5.784;2023-12-04T06:42:21;10.90;;;4.60;;
80625;SDS011;69982;51.758;5.784;2023-12-04T06:44:48;11.60;;;4.50;;
80625;SDS011;69982;51.758;5.784;2023-12-04T06:47:15;12.50;;;4.60;;
80625;SDS011;69982;51.758;5.784;2023-12-04T06:49:44;6.20;;;2.90;;
80625;SDS011;69982;51.758;5.784;2023-12-04T06:52:11;9.80;;;3.60;;
80625;SDS011;69982;51.758;5.784;2023-12-04T06:54:37;10.40;;;5.00;;
80625;SDS011;69982;51.758;5.784;2023-12-04T06:57:17;11.50;;;5.50;;
80625;SDS011;69982;51.758;5.784;2023-12-04T06:59:52;9.20;;;4.30;;
80625;SDS011;69982;51.758;5.784;2023-12-04T07:02:19;9.40;;;4.10;;
80625;SDS011;69982;51.758;5.784;2023-12-04T07:04:57;6.60;;;2.90;;
80625;SDS011;69982;51.758;5.784;2023-12-04T07:09:52;9.30;;;4.40;;
80625;SDS011;69982;51.758;5.784;2023-12-04T07:12:19;7.70;;;3.80;;
80625;SDS011;69982;51.758;5.784;2023-12-04T07:14:48;10.90;;;4.40;;
80625;SDS011;69982;51.758;5.784;2023-12-04T07:17:15;12.30;;;4.90;;
80625;SDS011;69982;51.758;5.784;2023-12-04T07:19:41;9.10;;;4.70;;
80625;SDS011;69982;51.758;5.784;2023-12-04T07:22:08;9.80;;;4.40;;
80625;SDS011;69982;51.758;5.784;2023-12-04T07:24:34;10.90;;;4.60;;
80625;SDS011;69982;51.758;5.784;2023-12-04T07:27:01;9.50;;;4.70;;
80625;SDS011;69982;51.758;5.784;2023-12-04T07:29:27;9.20;;;3.40;;
80625;SDS011;69982;51.758;5.784;2023-12-04T07:31:54;8.60;;;3.70;;
80625;SDS011;69982;51.758;5.784;2023-12-04T07:34:21;9.80;;;4.40;;
80625;SDS011;69982;51.758;5.784;2023-12-04T07:36:47;11.40;;;4.50;;
80625;SDS011;69982;51.758;5.784;2023-12-04T07:39:14;10.00;;;4.50;;
80625;SDS011;69982;51.758;5.784;2023-12-04T07:41:42;8.40;;;3.70;;
80625;SDS011;69982;51.758;5.784;2023-12-04T07:46:37;12.30;;;5.20;;
80625;SDS011;69982;51.758;5.784;2023-12-04T07:49:03;10.40;;;4.30;;
80625;SDS011;69982;51.758;5.784;2023-12-04T07:51:30;10.60;;;5.30;;
80625;SDS011;69982;51.758;5.784;2023-12-04T07:53:56;11.00;;;4.70;;
80625;SDS011;69982;51.758;5.784;2023-12-04T07:56:22;11.40;;;5.50;;
80625;SDS011;69982;51.758;5.784;2023-12-04T07:58:52;10.90;;;5.10;;
80625;SDS011;69982;51.758;5.784;2023-12-04T08:01:18;10.00;;;3.80;;
80625;SDS011;69982;51.758;5.784;2023-12-04T08:03:44;11.10;;;5.20;;
80625;SDS011;69982;51.758;5.784;2023-12-04T08:06:12;13.20;;;5.40;;
80625;SDS011;69982;51.758;5.784;2023-12-04T08:08:38;11.00;;;5.50;;
80625;SDS011;69982;51.758;5.784;2023-12-04T08:11:05;9.60;;;4.20;;
80625;SDS011;69982;51.758;5.784;2023-12-04T08:13:31;10.10;;;5.40;;
80625;SDS011;69982;51.758;5.784;2023-12-04T08:15:58;9.00;;;4.50;;
80625;SDS011;69982;51.758;5.784;2023-12-04T08:18:25;11.10;;;5.00;;
80625;SDS011;69982;51.758;5.784;2023-12-04T08:20:52;6.30;;;2.70;;
80625;SDS011;69982;51.758;5.784;2023-12-04T08:23:18;9.60;;;4.90;;
80625;SDS011;69982;51.758;5.784;2023-12-04T08:25:48;10.40;;;5.10;;
80625;SDS011;69982;51.758;5.784;2023-12-04T08:28:14;11.50;;;5.40;;
80625;SDS011;69982;51.758;5.784;2023-12-04T08:30:41;6.60;;;2.60;;
80625;SDS011;69982;51.758;5.784;2023-12-04T08:33:07;10.20;;;4.90;;
80625;SDS011;69982;51.758;5.784;2023-12-04T08:35:33;9.40;;;4.70;;
80625;SDS011;69982;51.758;5.784;2023-12-04T08:38:00;11.30;;;5.50;;
80625;SDS011;69982;51.758;5.784;2023-12-04T08:40:29;11.60;;;5.00;;
80625;SDS011;69982;51.758;5.784;2023-12-04T08:42:55;10.10;;;4.80;;
80625;SDS011;69982;51.758;5.784;2023-12-04T08:45:22;10.00;;;4.00;;
80625;SDS011;69982;51.758;5.784;2023-12-04T08:47:48;10.40;;;5.10;;
80625;SDS011;69982;51.758;5.784;2023-12-04T08:50:15;9.60;;;4.30;;
80625;SDS011;69982;51.758;5.784;2023-12-04T08:52:42;12.30;;;4.90;;
80625;SDS011;69982;51.758;5.784;2023-12-04T08:55:11;11.40;;;5.20;;
80625;SDS011;69982;51.758;5.784;2023-12-04T08:57:38;11.40;;;5.50;;
80625;SDS011;69982;51.758;5.784;2023-12-04T09:00:04;13.10;;;5.40;;
80625;SDS011;69982;51.758;5.784;2023-12-04T09:02:31;10.00;;;4.30;;
80625;SDS011;69982;51.758;5.784;2023-12-04T09:04:58;9.80;;;4.70;;
80625;SDS011;69982;51.758;5.784;2023-12-04T09:07:25;11.10;;;4.70;;
80625;SDS011;69982;51.758;5.784;2023-12-04T09:10:11;11.40;;;5.50;;
80625;SDS011;69982;51.758;5.784;2023-12-04T09:12:39;12.10;;;5.40;;
80625;SDS011;69982;51.758;5.784;2023-12-04T09:15:06;11.00;;;4.80;;
80625;SDS011;69982;51.758;5.784;2023-12-04T09:17:34;13.20;;;5.70;;
80625;SDS011;69982;51.758;5.784;2023-12-04T09:20:01;7.80;;;2.80;;
80625;SDS011;69982;51.758;5.784;2023-12-04T09:22:28;10.70;;;4.70;;
80625;SDS011;69982;51.758;5.784;2023-12-04T09:25:00;11.40;;;4.50;;
80625;SDS011;69982;51.758;5.784;2023-12-04T09:27:26;12.30;;;5.50;;
80625;SDS011;69982;51.758;5.784;2023-12-04T09:29:53;12.90;;;5.90;;
80625;SDS011;69982;51.758;5.784;2023-12-04T09:32:19;9.10;;;4.10;;
80625;SDS011;69982;51.758;5.784;2023-12-04T09:34:46;10.50;;;5.10;;
80625;SDS011;69982;51.758;5.784;2023-12-04T09:37:15;12.00;;;5.30;;
80625;SDS011;69982;51.758;5.784;2023-12-04T09:39:41;10.30;;;5.10;;
80625;SDS011;69982;51.758;5.784;2023-12-04T09:42:08;10.20;;;4.80;;
80625;SDS011;69982;51.758;5.784;2023-12-04T09:44:36;11.40;;;5.20;;
80625;SDS011;69982;51.758;5.784;2023-12-04T09:47:03;10.50;;;5.20;;
80625;SDS011;69982;51.758;5.784;2023-12-04T09:49:31;12.40;;;5.90;;
80625;SDS011;69982;51.758;5.784;2023-12-04T09:51:57;14.10;;;5.30;;
80625;SDS011;69982;51.758;5.784;2023-12-04T09:54:27;12.20;;;5.00;;
80625;SDS011;69982;51.758;5.784;2023-12-04T09:56:56;12.70;;;6.20;;
80625;SDS011;69982;51.758;5.784;2023-12-04T09:59:23;12.30;;;5.90;;
80625;SDS011;69982;51.758;5.784;2023-12-04T10:01:52;13.80;;;7.10;;
80625;SDS011;69982;51.758;5.784;2023-12-04T10:04:19;15.10;;;5.90;;
80625;SDS011;69982;51.758;5.784;2023-12-04T10:06:52;11.60;;;5.60;;
80625;SDS011;69982;51.758;5.784;2023-12-04T10:09:19;13.40;;;6.00;;
80625;SDS011;69982;51.758;5.784;2023-12-04T10:11:45;9.40;;;4.00;;
80625;SDS011;69982;51.758;5.784;2023-12-04T10:14:16;15.40;;;6.50;;
80625;SDS011;69982;51.758;5.784;2023-12-04T10:16:46;12.30;;;5.90;;
80625;SDS011;69982;51.758;5.784;2023-12-04T10:19:14;14.60;;;6.40;;
80625;SDS011;69982;51.758;5.784;2023-12-04T10:21:43;15.60;;;6.20;;
80625;SDS011;69982;51.758;5.784;2023-12-04T10:24:10;13.60;;;6.20;;
80625;SDS011;69982;51.758;5.784;2023-12-04T10:26:37;13.90;;;5.70;;
80625;SDS011;69982;51.758;5.784;2023-12-04T10:29:05;14.60;;;6.20;;
80625;SDS011;69982;51.758;5.784;2023-12-04T10:31:32;10.70;;;5.60;;
80625;SDS011;69982;51.758;5.784;2023-12-04T10:34:01;14.90;;;6.10;;
80625;SDS011;69982;51.758;5.784;2023-12-04T10:36:28;15.50;;;6.80;;
80625;SDS011;69982;51.758;5.784;2023-12-04T10:38:59;12.30;;;5.30;;
80625;SDS011;69982;51.758;5.784;2023-12-04T10:41:26;13.90;;;6.20;;
80625;SDS011;69982;51.758;5.784;2023-12-04T10:43:53;15.00;;;6.90;;
80625;SDS011;69982;51.758;5.784;2023-12-04T10:46:26;13.80;;;6.20;;
80625;SDS011;69982;51.758;5.784;2023-12-04T10:48:53;12.40;;;5.90;;
80625;SDS011;69982;51.758;5.784;2023-12-04T10:51:20;13.50;;;5.90;;
80625;SDS011;69982;51.758;5.784;2023-12-04T10:53:52;12.90;;;6.10;;
80625;SDS011;69982;51.758;5.784;2023-12-04T10:56:40;11.30;;;5.80;;
80625;SDS011;69982;51.758;5.784;2023-12-04T10:59:11;11.40;;;5.10;;
80625;SDS011;69982;51.758;5.784;2023-12-04T11:01:44;11.90;;;5.20;;
80625;SDS011;69982;51.758;5.784;2023-12-04T11:04:16;13.70;;;6.40;;
80625;SDS011;69982;51.758;5.784;2023-12-04T11:06:47;13.10;;;6.00;;
80625;SDS011;69982;51.758;5.784;2023-12-04T11:09:18;13.40;;;6.20;;
80625;SDS011;69982;51.758;5.784;2023-12-04T11:11:48;9.30;;;4.40;;
80625;SDS011;69982;51.758;5.784;2023-12-04T11:14:20;10.90;;;5.20;;
80625;SDS011;69982;51.758;5.784;2023-12-04T11:16:57;12.60;;;6.60;;
80625;SDS011;69982;51.758;5.784;2023-12-04T11:19:52;9.60;;;4.50;;
80625;SDS011;69982;51.758;5.784;2023-12-04T11:22:21;12.40;;;5.70;;
80625;SDS011;69982;51.758;5.784;2023-12-04T11:24:48;12.60;;;5.40;;
80625;SDS011;69982;51.758;5.784;2023-12-04T11:27:15;12.00;;;5.40;;
80625;SDS011;69982;51.758;5.784;2023-12-04T11:29:44;10.80;;;4.90;;
80625;SDS011;69982;51.758;5.784;2023-12-04T11:32:13;9.80;;;3.50;;
80625;SDS011;69982;51.758;5.784;2023-12-04T11:34:49;12.40;;;5.20;;
80625;SDS011;69982;51.758;5.784;2023-12-04T11:37:22;12.40;;;5.90;;
80625;SDS011;69982;51.758;5.784;2023-12-04T11:39:52;11.80;;;5.20;;
80625;SDS011;69982;51.758;5.784;2023-12-04T11:42:23;13.80;;;6.50;;
80625;SDS011;69982;51.758;5.784;2023-12-04T11:44:55;13.70;;;5.90;;
80625;SDS011;69982;51.758;5.784;2023-12-04T11:47:30;11.80;;;5.30;;
80625;SDS011;69982;51.758;5.784;2023-12-04T11:49:57;10.40;;;4.00;;
80625;SDS011;69982;51.758;5.784;2023-12-04T11:52:33;8.60;;;3.70;;
80625;SDS011;69982;51.758;5.784;2023-12-04T11:55:04;12.60;;;6.20;;
80625;SDS011;69982;51.758;5.784;2023-12-04T11:57:38;14.00;;;6.90;;
80625;SDS011;69982;51.758;5.784;2023-12-04T12:00:39;11.20;;;5.20;;
80625;SDS011;69982;51.758;5.784;2023-12-04T12:03:02;13.30;;;6.20;;
80625;SDS011;69982;51.758;5.784;2023-12-04T12:05:33;11.10;;;4.80;;
80625;SDS011;69982;51.758;5.784;2023-12-04T12:08:03;11.90;;;4.70;;
80625;SDS011;69982;51.758;5.784;2023-12-04T12:10:29;13.50;;;5.70;;
80625;SDS011;69982;51.758;5.784;2023-12-04T12:12:56;10.00;;;5.50;;
80625;SDS011;69982;51.758;5.784;2023-12-04T12:15:23;12.90;;;5.60;;
80625;SDS011;69982;51.758;5.784;2023-12-04T12:17:52;14.60;;;6.10;;
80625;SDS011;69982;51.758;5.784;2023-12-04T12:20:19;11.30;;;4.70;;
80625;SDS011;69982;51.758;5.784;2023-12-04T12:22:48;11.50;;;5.80;;
80625;SDS011;69982;51.758;5.784;2023-12-04T12:25:15;11.10;;;5.00;;
80625;SDS011;69982;51.758;5.784;2023-12-04T12:27:44;15.40;;;6.40;;
80625;SDS011;69982;51.758;5.784;2023-12-04T12:30:11;9.70;;;4.80;;
80625;SDS011;69982;51.758;5.784;2023-12-04T12:32:46;10.90;;;4.20;;
80625;SDS011;69982;51.758;5.784;2023-12-04T12:35:12;13.50;;;6.00;;
80625;SDS011;69982;51.758;5.784;2023-12-04T12:37:39;13.70;;;5.80;;
80625;SDS011;69982;51.758;5.784;2023-12-04T12:40:05;12.90;;;5.60;;
80625;SDS011;69982;51.758;5.784;2023-12-04T12:42:38;8.40;;;4.20;;
80625;SDS011;69982;51.758;5.784;2023-12-04T12:45:11;13.90;;;6.10;;
80625;SDS011;69982;51.758;5.784;2023-12-04T12:47:39;12.40;;;6.00;;
80625;SDS011;69982;51.758;5.784;2023-12-04T12:50:09;8.90;;;3.40;;
80625;SDS011;69982;51.758;5.784;2023-12-04T12:52:37;9.50;;;4.50;;
80625;SDS011;69982;51.758;5.784;2023-12-04T12:55:03;13.60;;;5.90;;
80625;SDS011;69982;51.758;5.784;2023-12-04T12:57:32;14.20;;;6.60;;
80625;SDS011;69982;51.758;5.784;2023-12-04T12:59:58;12.30;;;5.80;;
80625;SDS011;69982;51.758;5.784;2023-12-04T13:02:28;11.30;;;6.00;;
80625;SDS011;69982;51.758;5.784;2023-12-04T13:04:55;11.50;;;5.60;;
80625;SDS011;69982;51.758;5.784;2023-12-04T13:07:22;13.30;;;6.10;;
80625;SDS011;69982;51.758;5.784;2023-12-04T13:09:48;12.60;;;6.30;;
80625;SDS011;69982;51.758;5.784;2023-12-04T13:12:18;11.90;;;5.40;;
80625;SDS011;69982;51.758;5.784;2023-12-04T13:14:46;13.10;;;6.40;;
80625;SDS011;69982;51.758;5.784;2023-12-04T13:17:12;14.20;;;5.90;;
80625;SDS011;69982;51.758;5.784;2023-12-04T13:19:39;12.00;;;5.70;;
80625;SDS011;69982;51.758;5.784;2023-12-04T13:22:05;8.10;;;4.00;;
80625;SDS011;69982;51.758;5.784;2023-12-04T13:24:33;12.90;;;6.60;;
80625;SDS011;69982;51.758;5.784;2023-12-04T13:26:59;11.00;;;4.80;;
80625;SDS011;69982;51.758;5.784;2023-12-04T13:29:26;12.30;;;5.30;;
80625;SDS011;69982;51.758;5.784;2023-12-04T13:31:52;9.50;;;4.70;;
80625;SDS011;69982;51.758;5.784;2023-12-04T13:34:19;7.50;;;3.50;;
80625;SDS011;69982;51.758;5.784;2023-12-04T13:36:46;9.80;;;4.60;;
80625;SDS011;69982;51.758;5.784;2023-12-04T13:39:12;10.10;;;4.30;;
80625;SDS011;69982;51.758;5.784;2023-12-04T13:41:43;13.90;;;5.60;;
80625;SDS011;69982;51.758;5.784;2023-12-04T13:46:57;10.40;;;4.70;;
80625;SDS011;69982;51.758;5.784;2023-12-04T13:49:23;10.90;;;4.70;;
80625;SDS011;69982;51.758;5.784;2023-12-04T13:51:51;10.80;;;5.00;;
80625;SDS011;69982;51.758;5.784;2023-12-04T13:54:18;9.50;;;4.10;;
80625;SDS011;69982;51.758;5.784;2023-12-04T13:56:53;10.30;;;4.50;;
80625;SDS011;69982;51.758;5.784;2023-12-04T13:59:20;9.90;;;5.10;;
80625;SDS011;69982;51.758;5.784;2023-12-04T14:01:48;9.50;;;4.00;;
80625;SDS011;69982;51.758;5.784;2023-12-04T14:04:16;11.90;;;5.20;;
80625;SDS011;69982;51.758;5.784;2023-12-04T14:06:43;6.40;;;3.30;;
80625;SDS011;69982;51.758;5.784;2023-12-04T14:09:11;11.90;;;5.20;;
80625;SDS011;69982;51.758;5.784;2023-12-04T14:11:41;13.50;;;5.90;;
80625;SDS011;69982;51.758;5.784;2023-12-04T14:14:12;7.20;;;3.50;;
80625;SDS011;69982;51.758;5.784;2023-12-04T14:16:41;9.60;;;4.10;;
80625;SDS011;69982;51.758;5.784;2023-12-04T14:19:12;12.00;;;5.40;;
80625;SDS011;69982;51.758;5.784;2023-12-04T14:24:08;10.90;;;5.20;;
80625;SDS011;69982;51.758;5.784;2023-12-04T14:26:34;11.20;;;5.30;;
80625;SDS011;69982;51.758;5.784;2023-12-04T14:29:01;8.30;;;3.60;;
80625;SDS011;69982;51.758;5.784;2023-12-04T14:31:29;9.10;;;4.30;;
80625;SDS011;69982;51.758;5.784;2023-12-04T14:33:56;7.90;;;3.30;;
80625;SDS011;69982;51.758;5.784;2023-12-04T14:36:25;10.90;;;4.70;;
80625;SDS011;69982;51.758;5.784;2023-12-04T14:38:58;8.70;;;4.30;;
80625;SDS011;69982;51.758;5.784;2023-12-04T14:41:26;9.00;;;4.20;;
80625;SDS011;69982;51.758;5.784;2023-12-04T14:43:55;11.80;;;4.50;;
80625;SDS011;69982;51.758;5.784;2023-12-04T14:46:23;8.20;;;4.10;;
80625;SDS011;69982;51.758;5.784;2023-12-04T14:48:52;10.30;;;5.10;;
80625;SDS011;69982;51.758;5.784;2023-12-04T14:51:18;11.00;;;5.10;;
80625;SDS011;69982;51.758;5.784;2023-12-04T14:53:45;13.30;;;6.30;;
80625;SDS011;69982;51.758;5.784;2023-12-04T14:56:12;10.10;;;4.90;;